Hauptseite
METAR-TAF:

METAR-TAF

Flughäfen :

Middle Wallop Airfield

Middle Wallop, England

Breite: 51-09N, Länge: 001-34W, Höhe: 91 m

Beobachtung

Neuester Wetterbericht von vor 1 Stunde und 0 Minuten, um 04:50 UTC
Wind 2 kt aus Nord
Temperatur 0°C
Luftfeuchtigkeit 100%
Luftdruck 1009 hPa
Sichtweite: 5000 m

METAR: EGVP 170450Z AUTO 35002KT 5000 // OVC180/// 00/00 Q1009

Zeit: 05:50 (05:50 UTC)


TAF: fehlend

Wetterbeobachtungen und Prognosen von mehr als 4000 Flughäfen (METAR und TAF Bericht).

Die verfügbaren Stationen werden durch gelbe und rote Markierungen auf der Karte dargestellt.

Führen Sie die Maus auf sie, um den Namen der Station zu sehen.

Darauf klicken, um die Beobachtung von Wetterbeobachtungen und Prognosen zu sehen.

Um die Karte zu ändern : klicken Sie auf den grünen Tasten mit einem schwarzen Kreuz Zum Vergrößern, auf den grünen Button mit einem Gedankenstrich zu verkleinern, oder auf die grünen Pfeile für benachbarte Karten.


METAR-TAF: